Aviation Digital Data Service (ADDS)

Output produced by METARs form (1211 UTC 18 June 2019)
found at http://www.aviationweather.gov/metar/data/
 
Forecast for: TLPL (HEWANORRA INTL , LC)
Text: TLPL 181100Z 1812/1912 08019KT 9999 SCT022 BKN039
Forecast period: 1200 UTC 18 June 2019 to 1200 UTC 19 June 2019
Forecast type: FROM: standard forecast or significant change
Winds: from the E (80 degrees) at 22 MPH (19 knots; 9.8 m/s)
Visibility: 6 or more miles 10+ km)
Ceiling: 3900 feet AGL
Clouds: scattered clouds at 2200 feet AGL
broken clouds at 3900 feet AGL
Weather: no significant weather forecast for this period
Text: TEMPO 1812/1912 5000 SHRA BKN018TCU
Forecast period: 1200 UTC 18 June 2019 to 1200 UTC 19 June 2019
Forecast type: TEMPORARY: The following changes expected for less than half the time period
Visibility: 3 miles (5 km)
Ceiling: 1800 feet AGL
Clouds: broken clouds at 1800 feet AGL
Weather: SHRA  (rain showers)